Time;durP1;ratioP1;P1;durP2;ratioP2;P2;SDS_P1;SDS_P2;PMS_P1;PMS_P2;Temp;Humidity;BMP_temperature;BMP_pressure;BME280_temperature;BME280_humidity;BME280_pressure;Samples;Min_cycle;Max_cycle;Signal;HPM_P1;HPM_P2
2021/05/06 00:14:34;;;;;;;4.27;3.50;;;;;;;3.81;100.00;97577.70;3808334;76;43289;-22
2021/05/06 00:30:50;;;;;;;3.50;3.13;;;;;;;3.65;100.00;97567.09;3773443;77;44084;-22
2021/05/06 00:35:43;;;;;;;4.90;3.10;;;;;;;3.67;100.00;97559.81;3771572;78;44027;-22
2021/05/06 00:41:00;;;;;;;4.77;3.23;;;;;;;3.67;100.00;97553.16;3774457;77;44393;-22
2021/05/06 00:57:09;;;;;;;4.13;3.20;;;;;;;3.42;100.00;97562.48;3744129;77;43694;-22
2021/05/06 01:02:37;;;;;;;3.87;3.10;;;;;;;3.34;100.00;97559.68;3774417;77;44059;-22
2021/05/06 01:07:56;;;;;;;5.03;2.90;;;;;;;3.36;100.00;97553.73;3769464;78;43967;-22
2021/05/06 01:12:59;;;;;;;3.57;2.60;;;;;;;3.22;100.00;97555.80;3774734;77;43528;-22
2021/05/06 01:18:06;;;;;;;4.73;3.30;;;;;;;3.20;100.00;97552.43;3772800;78;43323;-22
2021/05/06 01:23:14;;;;;;;4.20;3.33;;;;;;;3.13;100.00;97545.98;3771226;77;43706;-22
2021/05/06 01:28:23;;;;;;;3.80;3.23;;;;;;;3.09;100.00;97545.89;3774382;77;43987;-22
2021/05/06 01:33:34;;;;;;;4.90;3.30;;;;;;;3.11;100.00;97551.09;3773296;77;44076;-22
2021/05/06 01:38:52;;;;;;;6.57;3.70;;;;;;;3.17;100.00;97539.42;3773832;78;44066;-22
2021/05/06 01:43:59;;;;;;;4.10;3.27;;;;;;;3.17;100.00;97539.89;3774071;77;43326;-22
2021/05/06 02:00:09;;;;;;;5.27;4.13;;;;;;;2.96;100.00;97533.31;3725076;78;43677;-21
2021/05/06 02:05:18;;;;;;;4.77;3.70;;;;;;;2.87;100.00;97530.49;3773497;77;26497;-21
2021/05/06 02:10:27;;;;;;;6.10;4.00;;;;;;;2.88;100.00;97532.68;3773710;78;43396;-22
2021/05/06 02:15:37;;;;;;;6.60;3.87;;;;;;;2.81;100.00;97536.83;3772986;77;26500;-21
2021/05/06 02:20:42;;;;;;;5.27;3.80;;;;;;;2.75;100.00;97528.43;3773855;78;44039;-21
2021/05/06 02:25:48;;;;;;;4.87;3.70;;;;;;;2.69;100.00;97534.27;3787740;77;44010;-21
2021/05/06 02:30:54;;;;;;;5.03;3.67;;;;;;;2.62;100.00;97530.47;3806333;76;43482;-21
2021/05/06 02:36:00;;;;;;;4.60;4.00;;;;;;;2.57;100.00;97529.55;3797460;76;44000;-21
2021/05/06 02:41:06;;;;;;;5.40;4.10;;;;;;;2.51;100.00;97529.23;3803495;76;44380;-21
2021/05/06 02:46:12;;;;;;;5.53;3.97;;;;;;;2.64;100.00;97521.88;3799996;77;43786;-22
2021/05/06 02:51:18;;;;;;;5.93;3.97;;;;;;;2.70;100.00;97527.15;3798155;78;43730;-21
2021/05/06 02:56:30;;;;;;;5.23;4.07;;;;;;;2.71;100.00;97522.16;3700174;78;44070;-22
2021/05/06 03:06:59;;;;;;;4.63;4.10;;;;;;;2.49;100.00;97525.86;3804402;76;43451;-21
2021/05/06 03:12:18;;;;;;;6.50;4.40;;;;;;;2.56;100.00;97513.70;3806453;76;43754;-20
2021/05/06 03:22:44;;;;;;;5.17;4.10;;;;;;;2.30;100.00;97510.14;3801596;77;43502;-21
2021/05/06 03:27:53;;;;;;;5.20;4.20;;;;;;;2.26;100.00;97528.67;3803826;76;43665;-20
2021/05/06 03:34:37;;;;;;;5.13;3.90;;;;;;;2.20;100.00;97523.86;3804517;77;43982;-20
2021/05/06 03:44:00;;;;;;;4.40;3.97;;;;;;;1.99;100.00;97516.75;3550873;82;44738;-20
2021/05/06 04:16:36;;;;;;;5.30;4.20;;;;;;;2.02;100.00;97528.45;3801760;76;43369;-20
2021/05/06 04:21:55;;;;;;;5.57;3.50;;;;;;;2.15;100.00;97524.26;3797991;78;43685;-21
2021/05/06 04:27:00;;;;;;;4.73;3.87;;;;;;;2.23;100.00;97536.90;3805901;76;43702;-20
2021/05/06 04:37:15;;;;;;;4.77;3.73;;;;;;;2.42;100.00;97542.31;3800653;78;43778;-21
2021/05/06 04:53:33;;;;;;;4.73;3.60;;;;;;;2.83;100.00;97534.89;3802966;78;44518;-20
2021/05/06 04:59:06;;;;;;;4.40;3.60;;;;;;;2.85;100.00;97532.94;3801514;78;43834;-20
2021/05/06 05:04:08;;;;;;;4.23;3.73;;;;;;;2.97;100.00;97526.54;3808406;76;43757;-20
2021/05/06 05:09:29;;;;;;;5.97;3.93;;;;;;;3.06;100.00;97520.40;3802028;78;43759;-20
2021/05/06 05:19:44;;;;;;;4.87;4.00;;;;;;;3.35;100.00;97519.59;3808293;76;43698;-20
2021/05/06 05:24:54;;;;;;;5.50;3.93;;;;;;;3.68;100.00;97514.88;3803366;78;43342;-20
2021/05/06 05:29:58;;;;;;;5.73;3.70;;;;;;;3.99;100.00;97505.39;3805515;77;43673;-20
2021/05/06 05:35:08;;;;;;;5.40;3.93;;;;;;;4.05;100.00;97508.48;3809833;76;44033;-20
2021/05/06 05:40:21;;;;;;;6.27;4.13;;;;;;;4.11;100.00;97514.56;3805548;78;44091;-20
2021/05/06 05:56:24;;;;;;;5.60;4.10;;;;;;;4.49;100.00;97512.80;3803679;77;43587;-20
2021/05/06 06:01:30;;;;;;;6.07;4.30;;;;;;;4.65;100.00;97511.31;3801386;76;44083;-20
2021/05/06 06:06:37;;;;;;;7.73;4.20;;;;;;;4.76;100.00;97507.16;3803235;78;44066;-20
2021/05/06 06:11:43;;;;;;;5.20;4.13;;;;;;;4.99;100.00;97498.25;3804194;78;43436;-21
2021/05/06 06:16:49;;;;;;;5.33;4.23;;;;;;;5.29;100.00;97504.75;3806016;76;44080;-21
2021/05/06 06:22:01;;;;;;;8.10;4.43;;;;;;;5.40;100.00;97497.86;3804592;76;43361;-21
2021/05/06 06:27:05;;;;;;;6.47;4.10;;;;;;;5.60;100.00;97493.22;3789886;78;69018;-22
2021/05/06 06:32:14;;;;;;;3.87;3.30;;;;;;;5.79;100.00;97497.56;3776749;77;44016;-20
2021/05/06 06:37:19;;;;;;;4.00;3.40;;;;;;;5.97;100.00;97493.54;3774740;78;43396;-20
2021/05/06 06:42:27;;;;;;;5.42;3.52;;;;;;;6.15;100.00;97493.54;3773394;78;69083;-20
2021/05/06 06:47:34;;;;;;;4.33;3.60;;;;;;;6.41;100.00;97489.18;3777454;77;43205;-20
2021/05/06 06:52:40;;;;;;;5.33;3.60;;;;;;;6.69;100.00;97493.85;3775328;77;44360;-20
2021/05/06 06:57:47;;;;;;;4.53;2.87;;;;;;;6.68;100.00;97488.16;3774292;77;43679;-20
2021/05/06 07:02:52;;;;;;;3.03;2.40;;;;;;;6.66;100.00;97483.97;3777867;77;44004;-21
2021/05/06 07:08:14;;;;;;;4.23;2.00;;;;;;;6.74;100.00;97483.52;3773848;77;43486;-21
2021/05/06 07:13:21;;;;;;;2.17;1.90;;;;;;;6.74;98.09;97481.33;3774597;78;43677;-19
2021/05/06 07:18:30;;;;;;;2.13;1.77;;;;;;;6.76;95.73;97492.20;3778537;77;43365;-21
2021/05/06 07:23:37;;;;;;;7.08;2.02;;;;;;;6.94;95.98;97477.39;3775189;77;43697;-22
2021/05/06 07:28:45;;;;;;;3.00;1.87;;;;;;;6.95;94.03;97484.94;3790054;77;43296;-22
2021/05/06 07:33:53;;;;;;;3.17;1.77;;;;;;;6.94;90.77;97489.44;3807751;76;42762;-20
2021/05/06 07:39:00;;;;;;;3.17;2.10;;;;;;;7.02;89.95;97476.58;3804808;77;43147;-20
2021/05/06 07:44:08;;;;;;;6.45;2.30;;;;;;;7.20;93.83;97484.51;3804874;78;45044;-21
2021/05/06 07:49:16;;;;;;;7.42;2.55;;;;;;;7.17;91.83;97485.34;3809528;76;44119;-21
2021/05/06 07:54:24;;;;;;;5.35;2.30;;;;;;;7.27;93.00;97494.08;3805471;78;43686;-21
2021/05/06 07:59:32;;;;;;;3.90;2.10;;;;;;;7.19;94.59;97494.06;3799647;76;43455;-21
2021/05/06 08:04:38;;;;;;;15.87;2.63;;;;;;;7.06;92.00;97491.34;3806358;76;43718;-21
2021/05/06 08:09:46;;;;;;;4.78;2.22;;;;;;;7.01;93.18;97492.31;3805676;78;44094;-21
2021/05/06 08:14:54;;;;;;;3.45;2.20;;;;;;;6.99;92.34;97487.64;3805147;78;43420;-21
2021/05/06 08:20:03;;;;;;;4.30;2.47;;;;;;;7.19;90.44;97487.36;3807148;76;44050;-20
2021/05/06 08:25:12;;;;;;;2.65;2.20;;;;;;;7.47;88.14;97470.99;3801033;77;44096;-22
2021/05/06 08:30:19;;;;;;;3.77;2.37;;;;;;;7.78;85.14;97467.70;3783135;78;44083;-22
2021/05/06 08:35:26;;;;;;;4.97;2.08;;;;;;;7.92;80.67;97472.88;3774504;77;43623;-21
2021/05/06 08:40:32;;;;;;;3.25;2.08;;;;;;;8.05;77.52;97471.88;3775379;78;44534;-21
2021/05/06 08:45:45;;;;;;;2.92;1.72;;;;;;;8.66;80.78;97468.78;3774452;77;43783;-21
2021/05/06 08:50:51;;;;;;;2.47;1.87;;;;;;;8.44;76.26;97464.45;3773885;78;44826;-21
2021/05/06 08:55:58;;;;;;;4.92;2.35;;;;;;;8.41;74.77;97464.78;3773839;77;44064;-21
2021/05/06 09:01:05;;;;;;;4.08;2.15;;;;;;;8.74;71.58;97476.80;3784586;77;44201;-21
2021/05/06 09:06:18;;;;;;;2.55;1.75;;;;;;;8.87;70.93;97460.64;3800025;77;44460;-21
2021/05/06 09:11:34;;;;;;;3.47;2.00;;;;;;;9.11;70.86;97463.74;3774560;77;44109;-21
2021/05/06 09:16:42;;;;;;;3.27;2.00;;;;;;;8.79;67.74;97455.64;3773709;77;73602;-21
2021/05/06 09:21:50;;;;;;;3.35;2.27;;;;;;;8.33;69.61;97474.20;3774763;77;44071;-21
2021/05/06 09:26:57;;;;;;;2.60;2.17;;;;;;;8.20;74.70;97465.31;3773856;77;44090;-21
2021/05/06 09:32:16;;;;;;;2.60;2.05;;;;;;;8.12;72.74;97464.81;3775736;77;43373;-21
2021/05/06 09:37:25;;;;;;;4.25;2.05;;;;;;;8.06;73.17;97458.80;3774819;78;43329;-21
2021/05/06 09:42:41;;;;;;;2.87;2.30;;;;;;;8.04;72.39;97463.49;3775184;77;44012;-21
2021/05/06 09:47:48;;;;;;;4.47;1.83;;;;;;;7.97;73.25;97466.53;3672388;79;73360;-20
2021/05/06 09:52:58;;;;;;;4.40;2.15;;;;;;;8.15;74.83;97475.73;3772963;78;44046;-21
2021/05/06 09:58:18;;;;;;;3.83;1.70;;;;;;;8.53;71.60;97470.64;3773605;77;44040;-21
2021/05/06 10:03:26;;;;;;;2.60;1.70;;;;;;;8.78;68.66;97463.86;3775224;77;43698;-21
2021/05/06 10:08:37;;;;;;;2.42;1.60;;;;;;;8.61;64.22;97454.53;3773061;77;44889;-20
2021/05/06 10:13:44;;;;;;;2.77;1.80;;;;;;;8.46;67.13;97462.92;3770491;77;43705;-22
2021/05/06 10:18:50;;;;;;;2.47;1.65;;;;;;;7.95;75.93;97461.31;3776003;77;44569;-21
2021/05/06 10:23:57;;;;;;;2.83;1.55;;;;;;;8.48;75.03;97457.73;3774442;78;43419;-21
2021/05/06 10:29:03;;;;;;;3.30;1.85;;;;;;;8.79;64.21;97458.33;3781296;77;43726;-20
2021/05/06 10:34:11;;;;;;;2.40;1.70;;;;;;;9.46;70.60;97452.12;3806770;76;44216;-23
2021/05/06 10:39:17;;;;;;;3.10;1.65;;;;;;;9.51;62.26;97438.14;3804181;77;43713;-22
2021/05/06 10:44:27;;;;;;;3.72;1.80;;;;;;;9.93;65.00;97443.52;3804358;76;43721;-22
2021/05/06 10:49:48;;;;;;;3.70;1.70;;;;;;;9.60;58.63;97453.68;3804749;76;43686;-22
2021/05/06 10:54:55;;;;;;;3.67;1.85;;;;;;;9.65;59.21;97441.37;3800457;78;44039;-22
2021/05/06 11:00:02;;;;;;;5.37;1.82;;;;;;;10.52;59.65;97433.06;3805753;78;43406;-22
2021/05/06 11:05:13;;;;;;;2.55;1.72;;;;;;;10.41;59.34;97429.78;3806036;76;43403;-22
2021/05/06 11:10:19;;;;;;;2.70;1.72;;;;;;;10.52;55.45;97443.83;3805459;78;44136;-22
2021/05/06 11:15:31;;;;;;;4.20;1.75;;;;;;;10.44;57.58;97421.86;3805825;76;43298;-22
2021/05/06 11:21:05;;;;;;;2.12;1.87;;;;;;;10.81;57.99;97415.20;3804895;77;43907;-21
2021/05/06 11:26:16;;;;;;;3.60;1.77;;;;;;;11.16;54.58;97414.06;3801778;76;43948;-21
2021/05/06 11:31:47;;;;;;;3.95;1.87;;;;;;;10.76;56.53;97403.12;3790320;77;43717;-21
2021/05/06 11:37:07;;;;;;;2.50;1.62;;;;;;;10.91;55.15;97405.81;3671288;81;44044;-22
2021/05/06 11:42:14;;;;;;;3.98;1.90;;;;;;;11.25;51.72;97371.13;3771353;78;43385;-21
2021/05/06 11:47:28;;;;;;;1.92;1.40;;;;;;;10.97;52.13;97361.11;3776701;77;44020;-22
2021/05/06 11:52:36;;;;;;;3.40;1.57;;;;;;;10.70;51.63;97370.21;3774955;77;44421;-21
2021/05/06 11:57:50;;;;;;;2.80;1.95;;;;;;;10.49;55.29;97369.63;3774460;77;44305;-21
2021/05/06 12:03:04;;;;;;;3.92;1.90;;;;;;;10.59;58.57;97367.47;3779406;77;43382;-21
2021/05/06 12:08:10;;;;;;;5.78;2.08;;;;;;;10.43;63.93;97367.16;3774132;78;44018;-23
2021/05/06 12:13:18;;;;;;;3.67;1.75;;;;;;;10.24;61.84;97375.78;3773941;77;43467;-20
2021/05/06 12:18:25;;;;;;;2.85;1.85;;;;;;;10.32;65.17;97377.88;3777370;77;43706;-21
2021/05/06 12:23:31;;;;;;;2.75;2.02;;;;;;;10.67;65.14;97358.45;3774790;77;43389;-23
2021/05/06 12:28:42;;;;;;;2.45;1.80;;;;;;;10.58;63.54;97360.94;3773097;78;43299;-21
2021/05/06 12:33:48;;;;;;;4.28;1.70;;;;;;;10.53;65.64;97344.49;3805722;76;43694;-21
2021/05/06 12:38:56;;;;;;;2.92;1.90;;;;;;;11.25;61.19;97341.47;3803775;78;43392;-21
2021/05/06 12:44:03;;;;;;;2.15;1.82;;;;;;;11.27;61.11;97337.26;3805679;76;43338;-22
2021/05/06 12:49:10;;;;;;;3.75;1.95;;;;;;;10.97;65.64;97341.39;3805266;76;43434;-22
2021/05/06 12:54:16;;;;;;;3.20;1.92;;;;;;;10.30;65.73;97333.30;3806024;76;43374;-22
2021/05/06 12:59:30;;;;;;;3.20;1.90;;;;;;;9.79;68.42;97341.59;3805049;78;43725;-22
2021/05/06 13:04:44;;;;;;;2.22;1.92;;;;;;;9.58;73.12;97348.18;3803225;76;43673;-22
2021/05/06 13:09:52;;;;;;;2.67;2.30;;;;;;;9.45;79.61;97344.74;3803791;76;43983;-22
2021/05/06 13:15:02;;;;;;;2.70;2.42;;;;;;;9.61;81.20;97349.14;3805697;76;73242;-22
2021/05/06 13:20:20;;;;;;;2.72;2.20;;;;;;;9.55;79.41;97329.19;3805502;76;43359;-22
2021/05/06 13:25:41;;;;;;;4.47;1.90;;;;;;;9.53;78.19;97325.36;3805970;76;44074;-22
2021/05/06 13:30:48;;;;;;;3.05;2.08;;;;;;;9.57;78.54;97324.48;3807529;76;44032;-22
2021/05/06 13:36:08;;;;;;;4.25;1.90;;;;;;;9.41;72.70;97333.00;3805313;78;44023;-22
2021/05/06 13:41:14;;;;;;;3.37;2.20;;;;;;;9.52;72.51;97351.91;3800876;76;44023;-23
2021/05/06 13:46:21;;;;;;;2.25;1.70;;;;;;;9.56;73.40;97331.72;3807029;76;43383;-21
2021/05/06 13:51:28;;;;;;;2.67;2.10;;;;;;;9.35;70.03;97348.52;3806529;78;43999;-20
2021/05/06 13:56:34;;;;;;;4.20;2.52;;;;;;;9.17;75.52;97339.41;3804033;78;44038;-22
2021/05/06 14:01:40;;;;;;;3.80;2.50;;;;;;;8.81;89.81;97328.42;3806877;76;43499;-21
2021/05/06 14:06:46;;;;;;;4.03;2.35;;;;;;;8.70;95.36;97308.16;3802742;77;43379;-20
2021/05/06 14:11:53;;;;;;;3.45;2.33;;;;;;;8.70;98.03;97298.77;3806477;77;43651;-20
2021/05/06 14:16:59;;;;;;;3.02;2.47;;;;;;;8.58;95.51;97305.05;3804364;76;43415;-22
2021/05/06 14:22:05;;;;;;;7.50;3.10;;;;;;;8.42;95.41;97319.34;3803866;76;43422;-23
2021/05/06 14:27:11;;;;;;;7.35;2.87;;;;;;;8.31;99.23;97308.50;3802400;78;43685;-21
2021/05/06 14:32:17;;;;;;;5.17;2.87;;;;;;;8.28;99.85;97313.72;3795074;76;43456;-21
2021/05/06 14:37:24;;;;;;;7.87;2.50;;;;;;;8.41;98.33;97290.85;3769402;78;44045;-21
2021/05/06 14:42:30;;;;;;;3.75;2.42;;;;;;;8.57;92.20;97279.22;3775799;78;44129;-21
2021/05/06 14:47:38;;;;;;;2.90;2.22;;;;;;;8.65;90.48;97281.84;3772310;77;44070;-21
2021/05/06 14:52:44;;;;;;;3.90;2.40;;;;;;;8.78;89.77;97274.53;3774961;78;73246;-21
2021/05/06 14:57:51;;;;;;;3.92;2.27;;;;;;;8.81;87.67;97269.34;3769679;78;43365;-21
2021/05/06 15:02:58;;;;;;;5.15;2.72;;;;;;;8.84;90.31;97259.06;3778094;77;44146;-21
2021/05/06 15:08:05;;;;;;;5.00;2.70;;;;;;;8.84;91.02;97265.78;3763464;78;65124;-21
2021/05/06 15:13:11;;;;;;;2.65;2.33;;;;;;;8.77;89.27;97259.44;3775026;78;43327;-22
2021/05/06 15:18:17;;;;;;;4.72;2.40;;;;;;;8.74;85.79;97245.05;3777298;77;43340;-21
2021/05/06 15:23:23;;;;;;;3.45;2.30;;;;;;;8.71;87.10;97245.39;3775166;78;44034;-20
2021/05/06 15:28:29;;;;;;;3.08;2.00;;;;;;;8.76;85.45;97247.88;3774620;77;44079;-22
2021/05/06 15:33:34;;;;;;;3.25;2.35;;;;;;;8.84;84.18;97236.24;3793163;77;43453;-21
2021/05/06 15:38:41;;;;;;;3.22;2.62;;;;;;;8.89;82.64;97239.73;3798630;77;43603;-21
2021/05/06 15:43:46;;;;;;;2.65;2.37;;;;;;;8.87;84.73;97235.89;3799490;77;43474;-21
2021/05/06 15:48:54;;;;;;;5.40;2.85;;;;;;;9.01;85.65;97233.41;3703036;78;44378;-21
2021/05/06 15:54:00;;;;;;;3.60;2.60;;;;;;;9.10;84.61;97226.45;3799906;78;43680;-21
2021/05/06 15:59:06;;;;;;;4.12;2.77;;;;;;;9.35;83.65;97214.66;3800039;77;44051;-20
2021/05/06 16:04:13;;;;;;;3.47;2.60;;;;;;;9.51;80.90;97205.58;3800661;77;44019;-21
2021/05/06 16:09:20;;;;;;;3.20;2.00;;;;;;;9.57;82.59;97206.17;3797274;77;43435;-22
2021/05/06 16:14:26;;;;;;;3.42;2.40;;;;;;;9.41;77.75;97202.63;3799403;77;44015;-21
2021/05/06 16:19:32;;;;;;;3.15;2.70;;;;;;;9.43;77.54;97192.20;3801501;77;43722;-21
2021/05/06 16:24:38;;;;;;;2.50;1.82;;;;;;;9.46;77.97;97185.98;3799738;77;43669;-21
2021/05/06 16:29:44;;;;;;;2.70;1.90;;;;;;;9.32;79.49;97186.27;3795243;77;43588;-21
2021/05/06 16:34:53;;;;;;;3.15;2.62;;;;;;;9.32;78.16;97189.48;3817756;76;43350;-23
2021/05/06 16:40:06;;;;;;;3.83;2.30;;;;;;;9.25;76.44;97187.51;3819059;76;44034;-22
2021/05/06 16:45:11;;;;;;;3.62;1.98;;;;;;;9.28;76.21;97188.16;3823931;76;44007;-21
2021/05/06 16:50:17;;;;;;;3.25;1.95;;;;;;;9.21;76.74;97184.88;3731596;78;73234;-22
2021/05/06 16:55:23;;;;;;;2.37;1.95;;;;;;;9.22;78.88;97187.05;3824063;76;44806;-21
2021/05/06 17:00:32;;;;;;;4.75;1.98;;;;;;;9.10;80.49;97182.64;3825812;76;44618;-21
2021/05/06 17:05:37;;;;;;;3.60;2.60;;;;;;;8.95;77.28;97183.93;3665235;81;44002;-22
2021/05/06 17:10:45;;;;;;;2.67;2.10;;;;;;;8.98;79.84;97172.01;3823462;76;43475;-21
2021/05/06 17:15:52;;;;;;;2.62;1.90;;;;;;;8.94;80.06;97169.68;3822715;76;44038;-21
2021/05/06 17:20:58;;;;;;;4.57;1.97;;;;;;;8.79;78.56;97165.63;3727959;79;42666;-23
2021/05/06 17:32:17;;;;;;;2.75;2.15;;;;;;;8.77;81.42;97156.91;3815073;76;26572;-21
2021/05/06 17:37:24;;;;;;;2.62;1.92;;;;;;;8.69;80.46;97161.50;3792095;76;43558;-21
2021/05/06 17:42:31;;;;;;;3.10;1.98;;;;;;;8.60;81.17;97158.04;3783203;77;44058;-21
2021/05/06 17:47:37;;;;;;;2.35;2.00;;;;;;;8.54;83.24;97159.59;3787817;77;43696;-21
2021/05/06 17:52:43;;;;;;;2.30;1.80;;;;;;;8.44;83.64;97150.92;3800303;77;43386;-21
2021/05/06 17:57:49;;;;;;;2.95;2.00;;;;;;;8.40;83.80;97145.60;3799384;78;45003;-20
2021/05/06 18:02:58;;;;;;;3.35;1.90;;;;;;;8.29;86.02;97139.61;3801195;77;43030;-21
2021/05/06 18:08:09;;;;;;;3.60;1.80;;;;;;;8.29;87.70;97138.27;3798329;77;44021;-22
2021/05/06 18:13:15;;;;;;;2.58;1.72;;;;;;;8.24;88.28;97142.02;3799704;78;44118;-21
2021/05/06 18:18:21;;;;;;;3.62;2.12;;;;;;;8.17;88.75;97138.38;3800853;77;44042;-21
2021/05/06 18:23:27;;;;;;;2.93;1.87;;;;;;;8.08;88.47;97135.40;3793774;78;43982;-21
2021/05/06 18:28:33;;;;;;;2.92;2.00;;;;;;;8.06;87.34;97134.73;3791578;77;44054;-20
2021/05/06 18:33:39;;;;;;;2.00;1.80;;;;;;;8.00;87.38;97137.13;3780887;77;73449;-20
2021/05/06 18:38:46;;;;;;;2.60;1.80;;;;;;;8.08;88.25;97136.25;3780530;77;44111;-21
2021/05/06 18:43:52;;;;;;;4.07;2.10;;;;;;;7.96;91.46;97143.84;3775806;77;73193;-21
2021/05/06 18:49:00;;;;;;;4.37;2.60;;;;;;;7.91;93.74;97141.37;3779365;77;44103;-21
2021/05/06 18:54:08;;;;;;;4.35;3.62;;;;;;;7.82;94.63;97151.32;3777138;78;43689;-21
2021/05/06 18:59:14;;;;;;;3.60;2.90;;;;;;;7.69;97.40;97152.72;3746343;78;44403;-22
2021/05/06 19:04:20;;;;;;;4.45;3.00;;;;;;;7.60;95.12;97165.80;3772912;78;43377;-21
2021/05/06 19:09:26;;;;;;;4.07;2.70;;;;;;;7.53;96.51;97158.95;3782333;78;43670;-21
2021/05/06 19:14:34;;;;;;;3.03;2.23;;;;;;;7.40;100.00;97172.09;3780386;77;43682;-19
2021/05/06 19:19:40;;;;;;;2.93;2.20;;;;;;;7.33;100.00;97169.26;3785795;77;44139;-20
2021/05/06 19:24:46;;;;;;;3.87;2.30;;;;;;;7.21;100.00;97184.02;3780748;77;44058;-19
2021/05/06 19:29:53;;;;;;;2.77;2.40;;;;;;;7.09;100.00;97183.52;3781117;77;44472;-20
2021/05/06 19:35:02;;;;;;;3.57;2.63;;;;;;;7.05;100.00;97189.72;3791681;77;43699;-20
2021/05/06 19:40:09;;;;;;;4.33;2.47;;;;;;;7.01;100.00;97185.70;3802984;78;44027;-20
2021/05/06 19:45:20;;;;;;;5.30;2.65;;;;;;;6.96;100.00;97182.72;3802927;76;69164;-20
2021/05/06 19:50:25;;;;;;;4.27;2.70;;;;;;;6.98;100.00;97185.20;3796911;77;43726;-20
2021/05/06 19:55:31;;;;;;;3.42;2.60;;;;;;;6.97;100.00;97181.71;3805400;76;44086;-21
2021/05/06 20:00:37;;;;;;;3.37;2.33;;;;;;;6.93;100.00;97180.36;3804664;76;73650;-19
2021/05/06 20:05:43;;;;;;;3.22;2.47;;;;;;;6.79;100.00;97182.71;3802339;78;44727;-26
2021/05/06 20:10:50;;;;;;;3.63;2.57;;;;;;;6.78;100.00;97181.03;3802859;77;73268;-26
2021/05/06 20:15:56;;;;;;;3.30;2.63;;;;;;;6.78;100.00;97190.41;3806150;76;43691;-26
2021/05/06 20:21:21;;;;;;;4.40;3.00;;;;;;;6.73;100.00;97172.69;3803740;78;44113;-26
2021/05/06 20:26:12;;;;;;;3.00;2.70;;;;;;;6.65;100.00;97161.97;3795272;78;44093;-26
2021/05/06 20:31:17;;;;;;;3.57;3.00;;;;;;;6.59;100.00;97157.30;3805694;76;44177;-26
2021/05/06 20:36:23;;;;;;;3.52;3.02;;;;;;;6.48;100.00;97159.30;3789137;78;43434;-26
2021/05/06 20:41:29;;;;;;;3.60;3.00;;;;;;;6.42;100.00;97148.44;3773300;78;44086;-26
2021/05/06 20:46:35;;;;;;;4.23;3.40;;;;;;;6.41;100.00;97151.59;3778577;77;43387;-26
2021/05/06 20:51:41;;;;;;;4.83;3.93;;;;;;;6.41;100.00;97155.61;3774158;78;43274;-27
2021/05/06 20:56:47;;;;;;;5.42;4.35;;;;;;;6.41;100.00;97150.25;3769625;78;44039;-26
2021/05/06 21:01:54;;;;;;;4.93;3.67;;;;;;;6.39;100.00;97150.95;3772788;77;69487;-26
2021/05/06 21:07:00;;;;;;;5.47;4.30;;;;;;;6.35;100.00;97140.23;3773197;77;44023;-26
2021/05/06 21:12:07;;;;;;;4.95;3.83;;;;;;;6.28;100.00;97131.22;3774116;78;43151;-26
2021/05/06 21:17:14;;;;;;;4.67;3.98;;;;;;;6.29;100.00;97130.22;3774677;77;43769;-26
2021/05/06 21:22:22;;;;;;;5.30;4.10;;;;;;;6.16;100.00;97131.53;3773793;78;44256;-26
2021/05/06 21:27:29;;;;;;;5.85;4.00;;;;;;;6.22;100.00;97138.55;3772104;77;43718;-26
2021/05/06 21:32:35;;;;;;;6.17;4.50;;;;;;;6.17;100.00;97139.87;3774868;77;43254;-26
2021/05/06 21:37:41;;;;;;;5.80;4.35;;;;;;;6.16;100.00;97147.58;3806997;77;43306;-26
2021/05/06 21:42:47;;;;;;;7.80;4.80;;;;;;;6.13;100.00;97145.23;3828283;77;44051;-26
2021/05/06 21:47:52;;;;;;;6.05;4.42;;;;;;;6.01;100.00;97143.87;3830130;76;43495;-26
2021/05/06 21:52:58;;;;;;;5.50;4.10;;;;;;;5.89;100.00;97145.96;3827806;77;44041;-26
2021/05/06 21:58:04;;;;;;;6.00;4.50;;;;;;;5.88;100.00;97138.13;3827227;77;44040;-26
2021/05/06 22:03:10;;;;;;;7.90;4.50;;;;;;;5.83;100.00;97143.95;3830098;76;44050;-27
2021/05/06 22:08:16;;;;;;;6.60;4.90;;;;;;;5.82;100.00;97136.94;3827767;76;42921;-27
2021/05/06 22:13:22;;;;;;;5.77;4.83;;;;;;;5.73;100.00;97136.58;3828787;76;43611;-27
2021/05/06 22:18:31;;;;;;;6.07;5.07;;;;;;;5.70;100.00;97124.39;3830174;76;44066;-25
2021/05/06 22:23:37;;;;;;;7.50;5.07;;;;;;;5.69;100.00;97119.53;3827427;77;69144;-25
2021/05/06 22:28:42;;;;;;;5.90;4.70;;;;;;;5.69;100.00;97109.36;3828248;77;43357;-25
2021/05/06 22:33:48;;;;;;;5.93;4.87;;;;;;;5.60;100.00;97108.48;3830485;76;43416;-28
2021/05/06 22:38:54;;;;;;;7.43;5.27;;;;;;;5.65;100.00;97099.98;3782837;77;43351;-26
2021/05/06 22:44:00;;;;;;;7.53;4.73;;;;;;;5.58;100.00;97113.66;3772842;77;43959;-27
2021/05/06 22:49:06;;;;;;;7.43;5.33;;;;;;;5.59;100.00;97130.86;3775454;77;44098;-27
2021/05/06 22:54:12;;;;;;;6.10;5.00;;;;;;;5.59;100.00;97130.00;3773202;78;43976;-28
2021/05/06 22:59:18;;;;;;;7.07;5.10;;;;;;;5.53;100.00;97127.48;3773857;77;43697;-26
2021/05/06 23:04:24;;;;;;;6.63;4.93;;;;;;;5.49;100.00;97131.48;3770082;78;43408;-26
2021/05/06 23:09:33;;;;;;;6.60;5.00;;;;;;;5.48;100.00;97138.65;3766624;77;44742;-26
2021/05/06 23:14:38;;;;;;;6.77;4.93;;;;;;;5.47;100.00;97132.97;3770515;77;44705;-26
2021/05/06 23:19:44;;;;;;;6.60;4.67;;;;;;;5.49;100.00;97154.20;3769505;78;44090;-26
2021/05/06 23:24:50;;;;;;;5.83;4.80;;;;;;;5.43;100.00;97146.33;3773247;78;43410;-26
2021/05/06 23:29:55;;;;;;;6.22;5.00;;;;;;;5.41;100.00;97142.97;3769856;77;69087;-26
2021/05/06 23:35:01;;;;;;;7.47;5.33;;;;;;;5.35;100.00;97132.95;3772517;78;43707;-26
2021/05/06 23:40:10;;;;;;;7.40;4.77;;;;;;;5.38;100.00;97121.92;3769432;78;44311;-24
2021/05/06 23:45:17;;;;;;;7.50;5.40;;;;;;;5.41;100.00;97113.59;3777229;77;44057;-23
2021/05/06 23:50:23;;;;;;;7.23;4.97;;;;;;;5.44;100.00;97114.62;3774001;78;43417;-23
2021/05/06 23:55:29;;;;;;;6.53;5.10;;;;;;;5.42;100.00;97116.61;3773537;77;44115;-23
